Portada
METAR-TAF:

METAR-TAF

Aeroports :

Illa de Man,

latitud: 54-05N, longitud: 004-38W, altitud: 17 m

Observació

L'informe es va fer fa 26 minuts, a les 10:50 UTC
Vent 19 kt del Oest
Temperatura 5°C
Humitat 70%
Pressió 1004 hPa
Visibilitat 10 km o més
Escasses núvols a una alçada de 1800 ft

METAR: EGNS 261050Z 28019KT 9999 FEW018 05/00 Q1004 NOSIG

Hora: 11:16 (11:16 UTC)

Pronòstic

L'informe es va fer fa 3 hores i 16 minuts, a les 08:00 UTC
Pronòstic vàlid del 26 a les 09 UTC al 26 a les 18 UTC
Vent 22 kt del Nord-Oest
Visibilitat 10 km o més
Núvols disperses a una alçada de 1500 ft
Probabilitat 40% :
Temporalment
l' 26 a les 09 UTC al 26 a les 12 UTC
Vent 25 kt del Nord-Oest amb ràfegues de 35 kt
Visibilitat: 6000 m
Cel ennuvolat a una alçada de 1400 ft, Cumulonimbus.
xàfecs de pluja, Calamarsa petit o neu granulada

TAF: EGNS 260800Z 2609/2618 31022KT 9999 SCT015 PROB40 TEMPO 2609/2612 31025G35KT 6000 SHRAGS BKN014CB

Observacions i pronòstics meteorològics de més de 4000 aeroports (METAR i TAF).

Les estacions disponibles són els punts grocs i vermells al mapa.

Posi el ratolí al punt desitjat per veure el nom de l'estació.

Feu clic per veure les observacions i els pronòstics meteorològics.

Per canviar el mapa: feu clic els botons verds amb una creu de color negre per apropar; al botó verd amb un guió per allunyar la imatge; o en les fletxes verdes per a mapes adjacents.


METAR-TAF: